Time;durP1;ratioP1;P1;durP2;ratioP2;P2;SDS_P1;SDS_P2;PMS_P1;PMS_P2;Temp;Humidity;BMP_temperature;BMP_pressure;BME280_temperature;BME280_humidity;BME280_pressure;Samples;Min_cycle;Max_cycle;Signal;HPM_P1;HPM_P2
2022/09/13 00:00:40;;;;;;;25.38;18.23;;;18.40;99.90;;;;;;5033631;28;20041;-58
2022/09/13 00:03:08;;;;;;;22.35;17.30;;;18.40;99.90;;;;;;5032488;28;20190;-58
2022/09/13 00:05:35;;;;;;;26.55;16.80;;;18.40;99.90;;;;;;5038297;28;20045;-58
2022/09/13 00:08:01;;;;;;;30.40;18.10;;;18.40;99.90;;;;;;5028593;28;20052;-58
2022/09/13 00:10:27;;;;;;;24.05;18.17;;;18.30;99.90;;;;;;5037199;28;20053;-58
2022/09/13 00:12:54;;;;;;;20.40;16.58;;;18.30;99.90;;;;;;5037734;28;20110;-58
2022/09/13 00:15:20;;;;;;;22.42;16.70;;;18.30;99.90;;;;;;5038524;28;20448;-56
2022/09/13 00:17:46;;;;;;;23.40;17.10;;;18.30;99.90;;;;;;5031407;28;20064;-57
2022/09/13 00:20:13;;;;;;;23.17;16.80;;;18.30;99.90;;;;;;5038517;28;20445;-57
2022/09/13 00:22:39;;;;;;;19.52;14.52;;;18.30;99.90;;;;;;5038058;28;20735;-58
2022/09/13 00:25:06;;;;;;;19.83;15.07;;;18.30;99.90;;;;;;5036273;28;20068;-58
2022/09/13 00:27:33;;;;;;;19.70;13.88;;;18.20;99.90;;;;;;5029040;28;20053;-58
2022/09/13 00:29:59;;;;;;;19.02;15.35;;;18.20;99.90;;;;;;5050488;28;20048;-58
2022/09/13 00:32:25;;;;;;;27.75;17.08;;;18.20;99.90;;;;;;5038256;28;22000;-58
2022/09/13 00:34:51;;;;;;;23.10;16.65;;;18.20;99.90;;;;;;5035214;28;20588;-58
2022/09/13 00:37:17;;;;;;;25.10;16.70;;;18.20;99.90;;;;;;5033789;28;20048;-57
2022/09/13 00:39:43;;;;;;;20.73;15.48;;;18.20;99.90;;;;;;5036971;28;20041;-58
2022/09/13 00:42:11;;;;;;;19.85;15.13;;;18.20;99.90;;;;;;5041487;28;20175;-58
2022/09/13 00:44:57;;;;;;;20.15;14.80;;;18.20;99.90;;;;;;5039428;28;20398;-56
2022/09/13 00:47:37;;;;;;;20.77;15.00;;;18.20;99.90;;;;;;5039175;28;20056;-58
2022/09/13 00:50:18;;;;;;;21.60;15.00;;;18.10;99.90;;;;;;5037714;28;20148;-57
2022/09/13 00:52:48;;;;;;;19.20;15.45;;;18.10;99.90;;;;;;5037335;28;20049;-58
2022/09/13 00:55:28;;;;;;;24.35;15.30;;;18.10;99.90;;;;;;5036634;28;20149;-57
2022/09/13 00:57:59;;;;;;;20.60;16.38;;;18.00;99.90;;;;;;5035662;28;20827;-58
2022/09/13 01:06:14;;;;;;;26.75;18.00;;;18.10;99.90;;;;;;4314810;23;20139;-58
2022/09/13 01:08:42;;;;;;;25.35;17.60;;;18.00;99.90;;;;;;4872799;29;20053;-59
2022/09/13 01:11:13;;;;;;;23.67;17.48;;;18.00;99.90;;;;;;4872942;29;20418;-59
2022/09/13 01:13:40;;;;;;;27.73;17.50;;;18.00;99.90;;;;;;4885701;29;20228;-58
2022/09/13 01:16:06;;;;;;;25.77;17.90;;;18.00;99.90;;;;;;4873206;29;20155;-58
2022/09/13 01:18:32;;;;;;;28.10;17.60;;;18.00;99.90;;;;;;4871168;29;20483;-59
2022/09/13 01:21:26;;;;;;;23.77;16.73;;;18.00;99.90;;;;;;4873604;29;20040;-58
2022/09/13 01:24:23;;;;;;;21.15;15.18;;;18.00;99.90;;;;;;4872799;29;20049;-59
2022/09/13 01:27:13;;;;;;;18.17;13.63;;;18.00;99.90;;;;;;4875042;29;20099;-58
2022/09/13 01:29:39;;;;;;;16.85;13.05;;;18.00;99.90;;;;;;4874283;29;20049;-59
2022/09/13 01:32:25;;;;;;;16.88;12.93;;;18.00;99.90;;;;;;4888807;29;20407;-58
2022/09/13 01:35:06;;;;;;;16.10;12.45;;;18.00;99.90;;;;;;4873360;29;20104;-58
2022/09/13 01:37:44;;;;;;;16.42;11.90;;;18.00;99.90;;;;;;4873182;29;20052;-58
2022/09/13 01:40:31;;;;;;;15.02;11.07;;;18.00;99.90;;;;;;4878402;29;20506;-59
2022/09/13 01:43:18;;;;;;;14.55;11.25;;;18.00;99.90;;;;;;4872780;29;20056;-59
2022/09/13 01:45:59;;;;;;;14.65;11.10;;;18.00;99.90;;;;;;4876553;29;20052;-59
2022/09/13 01:48:32;;;;;;;16.98;11.93;;;17.90;99.90;;;;;;4871118;29;20064;-59
2022/09/13 01:51:04;;;;;;;15.82;11.85;;;17.90;99.90;;;;;;4874600;29;20049;-59
2022/09/13 01:53:52;;;;;;;16.57;11.93;;;17.90;99.90;;;;;;4875450;29;20056;-59
2022/09/13 01:56:50;;;;;;;16.58;11.93;;;17.90;99.90;;;;;;4873344;29;20316;-59
2022/09/13 01:59:23;;;;;;;15.48;11.60;;;17.90;99.90;;;;;;4860118;29;20060;-58
2022/09/13 02:02:04;;;;;;;15.07;11.40;;;17.90;99.90;;;;;;4874530;29;20059;-59
2022/09/13 02:04:39;;;;;;;17.38;12.07;;;17.90;99.90;;;;;;4873079;29;20096;-58
2022/09/13 02:07:18;;;;;;;17.08;12.15;;;17.90;99.90;;;;;;4881899;29;20056;-58
2022/09/13 02:09:49;;;;;;;16.48;13.25;;;17.90;99.90;;;;;;4869753;29;20052;-59
2022/09/13 02:12:19;;;;;;;16.58;12.65;;;17.90;99.90;;;;;;4872677;29;20139;-58
2022/09/13 02:15:11;;;;;;;15.90;11.93;;;17.90;99.90;;;;;;4871851;29;20037;-58
2022/09/13 02:17:41;;;;;;;18.47;12.50;;;17.90;99.90;;;;;;4870124;29;20366;-59
2022/09/13 02:20:29;;;;;;;17.27;12.85;;;17.90;99.90;;;;;;4873370;29;20100;-57
2022/09/13 02:22:58;;;;;;;18.02;13.25;;;17.90;99.90;;;;;;4856489;29;20049;-58
2022/09/13 02:25:26;;;;;;;17.60;13.60;;;17.90;99.90;;;;;;4873316;29;20052;-58
2022/09/13 02:27:57;;;;;;;15.25;12.68;;;17.90;99.90;;;;;;4885617;29;20057;-59
2022/09/13 02:30:24;;;;;;;17.05;12.25;;;17.90;99.90;;;;;;4872600;29;20048;-58
2022/09/13 02:33:00;;;;;;;21.02;13.57;;;17.90;99.90;;;;;;4871505;29;20061;-58
2022/09/13 02:35:39;;;;;;;17.65;12.50;;;17.90;99.90;;;;;;4887704;29;20059;-59
2022/09/13 02:38:12;;;;;;;17.52;12.40;;;17.90;99.90;;;;;;4869040;29;20049;-58
2022/09/13 02:40:45;;;;;;;18.88;12.50;;;17.90;99.90;;;;;;4877009;29;20053;-59
2022/09/13 02:43:26;;;;;;;18.67;13.73;;;17.90;99.90;;;;;;4871665;29;20057;-59
2022/09/13 02:45:58;;;;;;;19.88;13.02;;;18.00;99.90;;;;;;4870771;29;20111;-58
2022/09/13 02:48:56;;;;;;;18.80;13.80;;;18.00;99.90;;;;;;4869190;29;20064;-57
2022/09/13 02:51:38;;;;;;;17.65;12.57;;;18.00;99.90;;;;;;4858739;29;20068;-59
2022/09/13 02:54:19;;;;;;;18.20;12.23;;;18.00;99.90;;;;;;4873245;29;20496;-59
2022/09/13 02:57:20;;;;;;;16.88;12.20;;;18.00;99.90;;;;;;4875258;29;20059;-58
2022/09/13 02:59:48;;;;;;;12.43;9.40;;;18.00;99.90;;;;;;4862980;29;22118;-58
2022/09/13 03:02:18;;;;;;;11.18;7.28;;;18.00;99.90;;;;;;4871941;29;20488;-58
2022/09/13 03:04:44;;;;;;;8.65;6.72;;;18.00;99.90;;;;;;4871823;29;20069;-59
2022/09/13 03:07:13;;;;;;;10.18;7.03;;;18.00;99.90;;;;;;4873048;29;20056;-58
2022/09/13 03:09:53;;;;;;;8.13;6.05;;;18.00;99.90;;;;;;4873174;29;20061;-60
2022/09/13 03:12:47;;;;;;;8.60;6.47;;;18.00;99.90;;;;;;4877019;29;20049;-59
2022/09/13 03:15:33;;;;;;;7.80;5.10;;;18.00;99.90;;;;;;4875163;29;20497;-59
2022/09/13 03:18:09;;;;;;;6.05;4.70;;;18.00;99.90;;;;;;4876465;29;20464;-59
2022/09/13 03:21:02;;;;;;;6.43;3.90;;;17.90;99.90;;;;;;4877159;29;20076;-57
2022/09/13 03:24:02;;;;;;;3.20;2.28;;;18.00;99.90;;;;;;4877792;29;20060;-59
2022/09/13 03:27:05;;;;;;;4.93;2.40;;;17.90;99.90;;;;;;4873763;29;20117;-59
2022/09/13 03:29:46;;;;;;;4.70;2.08;;;17.90;99.90;;;;;;4873448;29;20794;-58
2022/09/13 03:32:18;;;;;;;3.55;1.40;;;17.90;99.90;;;;;;4877545;29;20049;-58
2022/09/13 03:35:05;;;;;;;2.78;1.60;;;17.90;99.90;;;;;;4877271;29;20499;-57
2022/09/13 03:38:01;;;;;;;2.92;1.67;;;17.90;99.90;;;;;;4872934;29;20049;-59
2022/09/13 03:40:48;;;;;;;2.45;1.20;;;17.90;99.90;;;;;;4875688;29;20075;-59
2022/09/13 03:43:20;;;;;;;5.05;1.48;;;17.90;99.90;;;;;;4869870;29;20053;-57
2022/09/13 03:45:53;;;;;;;2.47;1.13;;;17.80;99.90;;;;;;4875809;29;20056;-58
2022/09/13 03:48:20;;;;;;;1.73;1.13;;;17.80;99.90;;;;;;4875962;29;20056;-58
2022/09/13 03:50:48;;;;;;;1.77;1.00;;;17.80;99.90;;;;;;4874775;29;20053;-59
2022/09/13 03:53:19;;;;;;;2.97;1.48;;;17.80;99.90;;;;;;4875203;29;20056;-58
2022/09/13 03:55:45;;;;;;;2.40;1.02;;;17.80;99.90;;;;;;4874966;29;20643;-59
2022/09/13 03:58:14;;;;;;;2.45;1.08;;;17.80;99.90;;;;;;4873323;29;20052;-59
2022/09/13 04:00:40;;;;;;;2.13;1.10;;;17.70;99.90;;;;;;4873614;29;20830;-59
2022/09/13 04:03:08;;;;;;;2.67;1.17;;;17.70;99.90;;;;;;4886031;29;20056;-59
2022/09/13 04:05:34;;;;;;;2.40;1.27;;;17.70;99.90;;;;;;4875312;29;20628;-58
2022/09/13 04:08:01;;;;;;;3.05;1.10;;;17.70;99.90;;;;;;4874505;29;20052;-58
2022/09/13 04:10:28;;;;;;;3.10;1.30;;;17.70;99.90;;;;;;4872196;29;20472;-57
2022/09/13 04:12:54;;;;;;;1.75;1.20;;;17.70;99.90;;;;;;4872982;29;20055;-58
2022/09/13 04:15:20;;;;;;;4.18;1.58;;;17.70;99.90;;;;;;4875349;29;21346;-57
2022/09/13 04:17:47;;;;;;;3.20;1.50;;;17.70;99.90;;;;;;4876604;29;20105;-58
2022/09/13 04:20:13;;;;;;;2.97;1.35;;;17.70;99.90;;;;;;4872176;29;20759;-58
2022/09/13 04:22:39;;;;;;;4.22;1.25;;;17.70;99.90;;;;;;4873988;29;20053;-59
2022/09/13 04:25:05;;;;;;;3.20;1.60;;;17.70;99.90;;;;;;4870638;29;20052;-59
2022/09/13 04:27:31;;;;;;;3.35;1.58;;;17.70;99.90;;;;;;4873793;29;20075;-58
2022/09/13 04:29:57;;;;;;;3.05;1.40;;;17.70;99.90;;;;;;4873484;29;20163;-58
2022/09/13 04:32:23;;;;;;;3.67;1.50;;;17.70;99.90;;;;;;4871899;29;20597;-59
2022/09/13 04:34:49;;;;;;;2.50;1.63;;;17.70;99.90;;;;;;4868906;29;20092;-59
2022/09/13 04:37:14;;;;;;;3.65;1.50;;;17.70;99.90;;;;;;4873149;29;20240;-59
2022/09/13 04:39:40;;;;;;;2.30;1.30;;;17.70;99.90;;;;;;4872303;29;20140;-59
2022/09/13 04:42:06;;;;;;;1.70;1.50;;;17.60;99.90;;;;;;4873770;29;20556;-59
2022/09/13 04:44:32;;;;;;;2.83;1.30;;;17.60;99.90;;;;;;4870772;29;20105;-58
2022/09/13 04:46:59;;;;;;;3.95;1.27;;;17.60;99.90;;;;;;4888817;29;20376;-60
2022/09/13 04:49:24;;;;;;;3.88;1.30;;;17.60;99.90;;;;;;4874525;29;20056;-59
2022/09/13 04:51:50;;;;;;;2.28;1.40;;;17.60;99.90;;;;;;4873926;29;20052;-58
2022/09/13 04:54:16;;;;;;;2.75;1.35;;;17.60;99.90;;;;;;4871488;29;20049;-59
2022/09/13 04:56:46;;;;;;;4.25;1.60;;;17.60;99.90;;;;;;4876067;29;20049;-59
2022/09/13 04:59:12;;;;;;;3.40;1.50;;;17.60;99.90;;;;;;4868571;29;21910;-59
2022/09/13 05:01:39;;;;;;;4.15;1.60;;;17.60;99.90;;;;;;4872893;29;20131;-59
2022/09/13 05:04:06;;;;;;;6.20;1.60;;;17.60;99.90;;;;;;4871273;29;20053;-60
2022/09/13 05:06:32;;;;;;;6.88;1.80;;;17.60;99.90;;;;;;4888092;29;20064;-59
2022/09/13 05:08:58;;;;;;;7.20;1.88;;;17.60;99.90;;;;;;4870375;29;20113;-59
2022/09/13 05:11:26;;;;;;;3.67;2.15;;;17.60;99.90;;;;;;4885504;29;20143;-58
2022/09/13 05:13:55;;;;;;;3.17;1.80;;;17.60;99.90;;;;;;4869461;29;20559;-58
2022/09/13 05:16:22;;;;;;;4.60;1.75;;;17.60;99.90;;;;;;4870130;29;20051;-59
2022/09/13 05:18:49;;;;;;;5.70;1.80;;;17.60;99.90;;;;;;4869477;29;20045;-59
2022/09/13 05:21:15;;;;;;;4.53;2.17;;;17.50;99.90;;;;;;4865660;29;20070;-59
2022/09/13 05:23:41;;;;;;;5.88;2.00;;;17.50;99.90;;;;;;4855602;29;20495;-59
2022/09/13 05:26:07;;;;;;;4.72;1.98;;;17.50;99.90;;;;;;4868969;29;20088;-59
2022/09/13 05:28:35;;;;;;;5.55;2.08;;;17.50;99.90;;;;;;4870172;29;20088;-59
2022/09/13 05:31:18;;;;;;;5.18;1.77;;;17.50;99.90;;;;;;4871298;29;20058;-59
2022/09/13 05:33:46;;;;;;;7.63;1.92;;;17.50;99.90;;;;;;4870441;29;20088;-59
2022/09/13 05:36:12;;;;;;;5.70;1.83;;;17.50;99.90;;;;;;4869770;29;20044;-59
2022/09/13 05:38:37;;;;;;;5.43;1.75;;;17.50;99.90;;;;;;4866894;29;20486;-59
2022/09/13 05:41:05;;;;;;;9.55;2.05;;;17.50;99.90;;;;;;4865379;29;20111;-58
2022/09/13 05:43:34;;;;;;;5.80;1.90;;;17.50;99.90;;;;;;4863289;29;20052;-59
2022/09/13 05:46:11;;;;;;;5.43;1.48;;;17.50;99.90;;;;;;4878567;29;20148;-59
2022/09/13 05:48:38;;;;;;;6.47;1.48;;;17.50;99.90;;;;;;4868841;29;20052;-58
2022/09/13 05:51:12;;;;;;;6.03;1.60;;;17.50;99.90;;;;;;4875627;29;20048;-59
2022/09/13 05:53:40;;;;;;;6.97;1.70;;;17.50;99.90;;;;;;4881089;29;20847;-57
2022/09/13 05:56:09;;;;;;;7.35;1.90;;;17.50;99.90;;;;;;4868659;29;20105;-55
2022/09/13 05:58:40;;;;;;;6.07;2.30;;;17.60;99.90;;;;;;4867302;29;20037;-57
2022/09/13 06:01:06;;;;;;;5.30;1.60;;;17.60;99.90;;;;;;4873904;29;20163;-56
2022/09/13 06:03:32;;;;;;;6.00;2.00;;;17.60;99.90;;;;;;4875770;29;20044;-57
2022/09/13 06:05:58;;;;;;;10.25;1.70;;;17.60;99.90;;;;;;4872193;29;20203;-58
2022/09/13 06:08:29;;;;;;;8.05;1.90;;;17.70;99.90;;;;;;4869155;29;20052;-57
2022/09/13 06:10:59;;;;;;;9.10;2.30;;;17.70;99.90;;;;;;4865495;29;20088;-63
2022/09/13 06:13:25;;;;;;;9.65;2.20;;;17.70;99.90;;;;;;4862262;29;20076;-57
2022/09/13 06:15:52;;;;;;;11.20;1.88;;;17.70;99.90;;;;;;4867266;29;20053;-57
2022/09/13 06:18:18;;;;;;;7.50;2.17;;;17.70;99.90;;;;;;4871526;29;20458;-56
2022/09/13 06:20:45;;;;;;;12.10;1.83;;;17.70;99.90;;;;;;4874446;29;20096;-58
2022/09/13 06:23:10;;;;;;;6.75;2.00;;;17.70;99.90;;;;;;4875999;29;20061;-59
2022/09/13 06:25:36;;;;;;;9.65;2.00;;;17.80;99.90;;;;;;4870666;29;20564;-57
2022/09/13 06:28:03;;;;;;;9.25;2.08;;;17.70;99.90;;;;;;4870736;29;20044;-57
2022/09/13 06:30:28;;;;;;;9.48;2.42;;;17.70;99.90;;;;;;4874071;29;20044;-59
2022/09/13 06:32:57;;;;;;;6.57;1.90;;;17.80;99.90;;;;;;4875018;29;20720;-58
2022/09/13 06:35:23;;;;;;;6.85;1.92;;;17.80;99.90;;;;;;4873488;29;20127;-59
2022/09/13 06:37:50;;;;;;;9.18;1.90;;;17.80;99.90;;;;;;4874570;29;20058;-59
2022/09/13 06:40:16;;;;;;;9.00;1.73;;;17.90;99.90;;;;;;4873762;29;20134;-59
2022/09/13 06:42:42;;;;;;;6.78;1.67;;;17.90;99.90;;;;;;4872540;29;20575;-58
2022/09/13 06:45:08;;;;;;;10.77;2.15;;;17.90;99.90;;;;;;4873669;29;20601;-58
2022/09/13 06:47:34;;;;;;;12.73;1.92;;;17.90;99.90;;;;;;4875132;29;20635;-59
2022/09/13 06:50:01;;;;;;;8.07;1.35;;;17.90;99.90;;;;;;4874881;29;20544;-59
2022/09/13 06:52:27;;;;;;;7.80;1.67;;;17.90;99.90;;;;;;4873194;29;20483;-58
2022/09/13 06:54:53;;;;;;;5.93;1.45;;;18.00;99.90;;;;;;4868877;29;20491;-59
2022/09/13 06:57:19;;;;;;;6.18;1.35;;;17.90;99.90;;;;;;4864230;29;20052;-59
2022/09/13 06:59:45;;;;;;;5.75;1.42;;;17.90;99.90;;;;;;4858779;29;20533;-57
2022/09/13 07:02:12;;;;;;;6.03;1.45;;;18.00;99.90;;;;;;4869307;29;20053;-57
2022/09/13 07:04:38;;;;;;;5.25;1.15;;;18.00;99.90;;;;;;4887129;29;20535;-59
2022/09/13 07:07:04;;;;;;;8.98;1.63;;;18.10;99.90;;;;;;4874241;29;20059;-58
2022/09/13 07:09:29;;;;;;;5.32;1.02;;;18.10;99.90;;;;;;4869242;29;20127;-59
2022/09/13 07:11:56;;;;;;;7.35;1.45;;;18.10;99.90;;;;;;4871553;29;20060;-58
2022/09/13 07:14:26;;;;;;;10.00;1.45;;;18.10;99.90;;;;;;4873480;29;20064;-59
2022/09/13 07:16:53;;;;;;;7.03;1.30;;;18.20;99.90;;;;;;4871753;29;20053;-58
2022/09/13 07:19:22;;;;;;;9.90;1.15;;;18.20;99.90;;;;;;4873460;29;20041;-58
2022/09/13 07:21:49;;;;;;;5.78;1.05;;;18.10;99.90;;;;;;4873280;29;21102;-57
2022/09/13 07:24:16;;;;;;;15.75;1.90;;;18.20;99.90;;;;;;4872373;29;20566;-59
2022/09/13 07:26:42;;;;;;;10.48;1.45;;;18.10;99.90;;;;;;4872588;29;20163;-59
2022/09/13 07:29:13;;;;;;;6.68;1.95;;;18.10;99.90;;;;;;4872926;29;20113;-56
2022/09/13 07:31:41;;;;;;;4.38;1.20;;;18.10;99.90;;;;;;4874964;29;20567;-59
2022/09/13 07:34:15;;;;;;;3.85;0.85;;;18.10;99.90;;;;;;4875647;29;20052;-59
2022/09/13 07:36:41;;;;;;;10.73;1.42;;;18.10;99.90;;;;;;4874390;29;20052;-58
2022/09/13 07:39:07;;;;;;;8.50;1.33;;;18.10;99.90;;;;;;4872959;29;20239;-58
2022/09/13 07:41:33;;;;;;;4.15;1.08;;;18.20;99.90;;;;;;4871975;29;20088;-59
2022/09/13 07:44:00;;;;;;;8.88;1.15;;;18.20;99.90;;;;;;4873829;29;20057;-58
2022/09/13 07:46:31;;;;;;;7.75;1.10;;;18.30;99.90;;;;;;4874142;29;20104;-58
2022/09/13 07:48:57;;;;;;;5.53;1.13;;;18.40;99.90;;;;;;4874434;29;20109;-59
2022/09/13 07:51:26;;;;;;;6.65;1.23;;;18.50;99.90;;;;;;4874301;29;20048;-57
2022/09/13 07:53:55;;;;;;;6.03;1.30;;;18.60;99.90;;;;;;4875505;29;20643;-59
2022/09/13 07:56:24;;;;;;;9.52;1.40;;;18.60;99.90;;;;;;4860437;29;20499;-58
2022/09/13 07:58:51;;;;;;;6.25;1.17;;;18.60;99.90;;;;;;4874238;29;20460;-57
2022/09/13 08:01:19;;;;;;;7.78;1.17;;;18.60;99.90;;;;;;4874123;29;20694;-59
2022/09/13 08:03:54;;;;;;;9.80;1.05;;;18.60;99.90;;;;;;4871913;29;20043;-58
2022/09/13 08:06:21;;;;;;;6.97;1.10;;;18.60;99.90;;;;;;4871891;29;20107;-59
2022/09/13 08:08:47;;;;;;;7.82;1.20;;;18.60;99.90;;;;;;4873210;29;21022;-58
2022/09/13 08:11:26;;;;;;;8.98;1.30;;;18.60;99.90;;;;;;4874532;29;20044;-58
2022/09/13 08:13:52;;;;;;;5.63;1.02;;;18.70;99.90;;;;;;4877633;29;20544;-60
2022/09/13 08:16:21;;;;;;;4.40;1.05;;;18.80;99.90;;;;;;4871571;29;20049;-59
2022/09/13 08:18:49;;;;;;;7.65;1.38;;;18.90;99.90;;;;;;4872313;29;20048;-59
2022/09/13 08:21:15;;;;;;;4.32;1.00;;;19.10;99.90;;;;;;4875569;29;20407;-56
2022/09/13 08:23:42;;;;;;;8.20;1.60;;;19.20;99.90;;;;;;4875025;29;20049;-59
2022/09/13 08:26:09;;;;;;;5.10;1.20;;;19.20;99.90;;;;;;4872615;29;20112;-59
2022/09/13 08:28:37;;;;;;;8.65;1.38;;;19.10;99.90;;;;;;4875451;29;20400;-59
2022/09/13 08:31:08;;;;;;;7.88;1.17;;;19.10;99.90;;;;;;4876125;29;20076;-59
2022/09/13 08:33:35;;;;;;;5.55;0.90;;;19.10;99.90;;;;;;4875489;29;20539;-59
2022/09/13 08:36:01;;;;;;;6.32;1.25;;;19.20;99.90;;;;;;4873214;29;20067;-59
2022/09/13 08:38:28;;;;;;;6.63;1.00;;;19.30;99.90;;;;;;4890813;29;20156;-60
2022/09/13 08:41:01;;;;;;;9.73;0.98;;;19.40;99.90;;;;;;4874355;29;20166;-60
2022/09/13 08:43:28;;;;;;;6.40;1.20;;;19.50;99.90;;;;;;4875187;29;20094;-60
2022/09/13 08:46:26;;;;;;;4.88;1.00;;;19.60;99.90;;;;;;4875912;29;20444;-60
2022/09/13 08:48:57;;;;;;;9.02;1.30;;;19.70;99.90;;;;;;4874379;29;20049;-60
2022/09/13 08:51:47;;;;;;;7.95;0.90;;;19.70;99.90;;;;;;4876478;29;20055;-59
2022/09/13 08:54:15;;;;;;;7.05;0.98;;;19.80;99.90;;;;;;4875509;29;20060;-57
2022/09/13 08:56:48;;;;;;;7.28;1.25;;;19.90;99.90;;;;;;4874399;29;20527;-59
2022/09/13 08:59:46;;;;;;;;;;;19.80;99.50;;;;;;4877417;29;20475;-60
2022/09/13 09:02:40;;;;;;;5.18;1.27;;;19.80;99.40;;;;;;4873145;29;20450;-60
2022/09/13 09:05:25;;;;;;;8.10;0.98;;;19.90;99.20;;;;;;4870022;29;20059;-60
2022/09/13 09:07:56;;;;;;;6.75;1.35;;;20.00;99.30;;;;;;4874107;29;20550;-57
2022/09/13 09:10:40;;;;;;;5.18;1.10;;;20.00;99.20;;;;;;4876799;29;20044;-60
2022/09/13 09:13:14;;;;;;;8.50;1.25;;;20.10;99.00;;;;;;4875129;29;20075;-59
2022/09/13 09:15:54;;;;;;;8.45;1.25;;;20.10;98.70;;;;;;4875733;29;20051;-58
2022/09/13 09:18:31;;;;;;;9.52;1.35;;;20.20;98.80;;;;;;4873535;29;20056;-59
2022/09/13 09:20:59;;;;;;;4.70;1.23;;;20.20;98.10;;;;;;4871823;29;20045;-58
2022/09/13 09:23:34;;;;;;;6.35;1.00;;;20.20;98.00;;;;;;4875900;29;20109;-59
2022/09/13 09:26:10;;;;;;;6.00;1.33;;;20.20;98.00;;;;;;4876464;29;20416;-58
2022/09/13 09:28:36;;;;;;;7.28;1.00;;;20.30;98.40;;;;;;4871613;29;20053;-58
2022/09/13 09:31:16;;;;;;;4.75;1.00;;;20.50;98.10;;;;;;4871172;29;20680;-59
2022/09/13 09:34:19;;;;;;;4.60;0.88;;;20.70;97.70;;;;;;4874881;29;20084;-59
2022/09/13 09:36:57;;;;;;;5.70;1.10;;;21.00;97.30;;;;;;4877039;29;20076;-60
2022/09/13 09:39:31;;;;;;;6.78;1.23;;;21.00;96.70;;;;;;4875782;29;20055;-59
2022/09/13 09:41:58;;;;;;;5.85;0.90;;;21.10;96.50;;;;;;4877172;29;20467;-59
2022/09/13 09:44:30;;;;;;;5.32;1.30;;;21.20;96.30;;;;;;4890301;29;20053;-60
2022/09/13 09:47:08;;;;;;;5.72;1.33;;;21.40;96.30;;;;;;4883858;29;20045;-60
2022/09/13 09:52:29;;;;;;;6.10;1.27;;;21.30;95.50;;;;;;4891033;29;20041;-60
2022/09/13 09:55:02;;;;;;;9.77;1.52;;;21.30;95.40;;;;;;4876699;29;20048;-59
2022/09/13 09:58:03;;;;;;;11.95;1.50;;;21.30;95.40;;;;;;4890226;29;20518;-59
2022/09/13 10:00:33;;;;;;;8.10;1.27;;;21.00;95.20;;;;;;4885091;29;20405;-59
2022/09/13 10:03:16;;;;;;;6.18;1.02;;;20.90;95.10;;;;;;4873565;29;20059;-60
2022/09/13 10:05:42;;;;;;;8.98;1.65;;;20.70;95.00;;;;;;4874340;29;20147;-60
2022/09/13 10:08:27;;;;;;;8.48;1.35;;;20.60;95.30;;;;;;4875505;29;20056;-59
2022/09/13 10:10:59;;;;;;;7.22;1.13;;;20.60;95.00;;;;;;4875857;29;20044;-59
2022/09/13 10:13:25;;;;;;;8.00;1.10;;;20.70;95.60;;;;;;4888477;29;20052;-60
2022/09/13 10:16:02;;;;;;;5.05;1.20;;;21.00;95.30;;;;;;4874329;29;20476;-60
2022/09/13 10:18:33;;;;;;;6.20;1.17;;;21.40;95.20;;;;;;4874281;29;20048;-58
2022/09/13 10:21:05;;;;;;;6.27;1.07;;;21.70;94.20;;;;;;4873264;29;20112;-60
2022/09/13 10:23:35;;;;;;;5.60;1.13;;;21.60;93.30;;;;;;4874504;29;20078;-60
2022/09/13 10:26:20;;;;;;;5.60;0.90;;;21.40;92.90;;;;;;4874366;29;20132;-60
2022/09/13 10:28:58;;;;;;;6.10;1.40;;;21.10;93.40;;;;;;4873603;29;20073;-59
2022/09/13 10:31:32;;;;;;;7.53;1.35;;;21.10;93.10;;;;;;4872997;29;20060;-58
2022/09/13 10:34:06;;;;;;;6.68;1.20;;;21.30;93.30;;;;;;4881033;29;20049;-59
2022/09/13 10:36:34;;;;;;;6.72;1.27;;;21.50;93.00;;;;;;4877698;29;20044;-58
2022/09/13 10:39:04;;;;;;;7.50;1.40;;;21.60;92.20;;;;;;4892544;29;20112;-60
2022/09/13 10:41:38;;;;;;;5.22;1.00;;;21.50;91.70;;;;;;4881253;29;20049;-59
2022/09/13 10:44:19;;;;;;;4.05;0.90;;;21.60;92.00;;;;;;4876504;29;20048;-60
2022/09/13 10:46:47;;;;;;;7.20;0.90;;;21.60;91.80;;;;;;4879483;29;20576;-60
2022/09/13 10:49:41;;;;;;;4.93;1.00;;;21.60;92.20;;;;;;4876808;29;20119;-58
2022/09/13 10:52:23;;;;;;;5.18;1.00;;;21.70;92.00;;;;;;4876052;29;20547;-60
2022/09/13 10:54:49;;;;;;;4.85;1.20;;;21.70;91.40;;;;;;4876797;29;20064;-59
2022/09/13 10:57:37;;;;;;;6.38;1.42;;;21.90;91.90;;;;;;4881549;29;20044;-60
2022/09/13 11:00:10;;;;;;;7.10;1.48;;;22.10;91.60;;;;;;4879878;29;20052;-60
2022/09/13 11:02:56;;;;;;;5.03;1.17;;;22.40;91.10;;;;;;4878545;29;20059;-60
2022/09/13 11:05:40;;;;;;;6.90;0.98;;;22.70;89.80;;;;;;4868419;29;20130;-60
2022/09/13 11:08:15;;;;;;;6.90;1.02;;;22.80;88.30;;;;;;4874953;29;20135;-60
2022/09/13 11:11:02;;;;;;;4.68;1.05;;;23.00;86.60;;;;;;4881041;29;20055;-60
2022/09/13 11:13:47;;;;;;;5.20;1.27;;;23.20;87.30;;;;;;4878844;29;20600;-60
2022/09/13 11:16:24;;;;;;;5.57;1.10;;;23.10;85.00;;;;;;4883086;29;20439;-60
2022/09/13 11:19:28;;;;;;;7.57;1.30;;;22.90;84.00;;;;;;4882079;29;20412;-60
2022/09/13 11:22:08;;;;;;;5.63;1.23;;;22.90;84.90;;;;;;4881917;29;20052;-59
2022/09/13 11:24:49;;;;;;;6.80;1.25;;;23.10;85.50;;;;;;4881404;29;20053;-61
2022/09/13 11:27:36;;;;;;;6.88;1.30;;;23.10;84.20;;;;;;4897619;29;24940;-60
2022/09/13 11:30:18;;;;;;;8.13;1.52;;;22.90;84.70;;;;;;4883294;29;20045;-60
2022/09/13 11:32:56;;;;;;;7.95;1.55;;;22.70;85.00;;;;;;4885219;29;20628;-60
2022/09/13 11:35:28;;;;;;;8.82;1.30;;;22.80;87.50;;;;;;4884410;29;20049;-60
2022/09/13 11:38:19;;;;;;;10.75;1.10;;;23.00;87.00;;;;;;4885474;29;20388;-61
2022/09/13 11:41:11;;;;;;;7.95;1.98;;;23.20;85.20;;;;;;4880575;29;20049;-60
2022/09/13 11:43:36;;;;;;;7.55;1.20;;;23.30;84.40;;;;;;4879379;29;20049;-60
2022/09/13 11:46:09;;;;;;;5.25;1.25;;;23.30;84.70;;;;;;4884828;29;20115;-60
2022/09/13 11:48:50;;;;;;;5.85;1.13;;;23.30;84.00;;;;;;4883295;29;20093;-60
2022/09/13 11:51:34;;;;;;;6.20;1.20;;;23.30;83.00;;;;;;4882896;29;20049;-60
2022/09/13 11:54:23;;;;;;;7.55;1.48;;;23.30;82.40;;;;;;4879701;29;20076;-60
2022/09/13 11:56:58;;;;;;;9.52;1.10;;;23.10;82.80;;;;;;4873671;29;20049;-60
2022/09/13 11:59:41;;;;;;;4.35;1.20;;;23.10;82.00;;;;;;4882211;29;20044;-58
2022/09/13 12:02:33;;;;;;;5.55;1.48;;;23.20;82.00;;;;;;4879681;29;20045;-60
2022/09/13 12:05:09;;;;;;;10.00;1.33;;;23.30;83.10;;;;;;4879933;29;20122;-60
2022/09/13 12:07:43;;;;;;;4.50;1.10;;;23.60;83.00;;;;;;4894382;29;20049;-59
2022/09/13 12:10:49;;;;;;;7.65;1.60;;;23.80;82.10;;;;;;4871693;29;20076;-62
2022/09/13 12:13:26;;;;;;;9.00;1.63;;;23.90;81.60;;;;;;4873817;29;20045;-63
2022/09/13 12:15:57;;;;;;;8.35;1.20;;;24.00;81.80;;;;;;4891625;29;20136;-63
2022/09/13 12:18:27;;;;;;;4.75;1.05;;;24.20;80.40;;;;;;4869835;29;20096;-63
2022/09/13 12:20:57;;;;;;;10.30;1.10;;;24.40;80.20;;;;;;4882282;29;20102;-63
2022/09/13 12:23:37;;;;;;;10.32;1.45;;;24.40;79.50;;;;;;4874970;29;20052;-64
2022/09/13 12:26:09;;;;;;;5.82;1.35;;;24.40;79.20;;;;;;4875965;29;20053;-63
2022/09/13 12:28:56;;;;;;;10.02;1.42;;;24.30;78.80;;;;;;4883235;29;20487;-64
2022/09/13 12:31:27;;;;;;;6.97;1.40;;;24.30;79.10;;;;;;4881104;29;20202;-63
2022/09/13 12:33:54;;;;;;;8.85;1.50;;;24.40;78.00;;;;;;4878857;29;20204;-64
2022/09/13 12:36:27;;;;;;;6.15;1.20;;;24.30;77.70;;;;;;4875014;29;20056;-62
2022/09/13 12:39:36;;;;;;;3.75;1.30;;;24.40;78.10;;;;;;4878700;29;20140;-63
2022/09/13 12:42:37;;;;;;;8.63;1.42;;;24.50;78.30;;;;;;4877769;29;20053;-63
2022/09/13 12:45:25;;;;;;;7.25;1.50;;;24.40;77.10;;;;;;4880202;29;20056;-63
2022/09/13 12:48:22;;;;;;;6.45;1.35;;;24.30;76.80;;;;;;4894195;29;20048;-63
2022/09/13 12:51:12;;;;;;;9.25;1.23;;;24.40;76.60;;;;;;4880825;29;21058;-63
2022/09/13 12:54:16;;;;;;;8.27;1.23;;;24.30;75.30;;;;;;4883997;29;20109;-63
2022/09/13 12:56:45;;;;;;;10.10;1.42;;;24.20;75.10;;;;;;4877354;29;20077;-64
2022/09/13 12:59:43;;;;;;;9.95;1.33;;;24.20;75.70;;;;;;4872493;29;20053;-64
2022/09/13 13:02:26;;;;;;;6.68;1.35;;;24.40;75.00;;;;;;4875723;29;20080;-64
2022/09/13 13:04:57;;;;;;;19.75;1.83;;;24.40;74.80;;;;;;4876307;29;20548;-64
2022/09/13 13:07:23;;;;;;;6.80;1.30;;;24.30;74.20;;;;;;4876964;29;20530;-62
2022/09/13 13:09:52;;;;;;;4.07;1.13;;;24.30;73.30;;;;;;4890510;29;20419;-63
2022/09/13 13:12:37;;;;;;;4.30;1.30;;;24.10;73.10;;;;;;4876428;29;20057;-63
2022/09/13 13:15:14;;;;;;;4.20;1.38;;;24.10;73.20;;;;;;4877608;29;20063;-63
2022/09/13 13:17:49;;;;;;;5.90;1.10;;;24.20;73.40;;;;;;4876217;29;20554;-63
2022/09/13 13:20:52;;;;;;;5.60;0.98;;;24.20;73.20;;;;;;4878190;29;20041;-63
2022/09/13 13:23:34;;;;;;;10.02;1.30;;;24.20;73.30;;;;;;4877366;29;20455;-64
2022/09/13 13:26:04;;;;;;;;;;;24.30;72.50;;;;;;4881529;29;20045;-63